Time;durP1;ratioP1;P1;durP2;ratioP2;P2;SDS_P1;SDS_P2;PMS_P1;PMS_P2;Temp;Humidity;BMP_temperature;BMP_pressure;BME280_temperature;BME280_humidity;BME280_pressure;Samples;Min_cycle;Max_cycle;Signal;HPM_P1;HPM_P2
2024/01/15 00:00:49;;;;;;;43.43;22.77;;;1.40;99.90;;;;;;5093619;28;20265;-77
2024/01/15 00:03:14;;;;;;;49.00;22.37;;;1.30;99.90;;;;;;5095014;28;20231;-78
2024/01/15 00:05:40;;;;;;;41.70;22.90;;;1.30;99.90;;;;;;5093760;28;20181;-77
2024/01/15 00:08:06;;;;;;;38.07;21.53;;;1.30;99.90;;;;;;5094289;28;20657;-78
2024/01/15 00:10:31;;;;;;;40.70;21.77;;;1.20;99.90;;;;;;5092879;28;20248;-76
2024/01/15 00:12:57;;;;;;;40.43;21.97;;;1.30;99.90;;;;;;5093142;28;20549;-78
2024/01/15 00:15:22;;;;;;;39.73;20.80;;;1.30;99.90;;;;;;5094476;28;20174;-78
2024/01/15 00:17:48;;;;;;;38.57;22.03;;;1.30;99.90;;;;;;5094630;28;20182;-77
2024/01/15 00:20:13;;;;;;;38.53;21.47;;;1.30;99.90;;;;;;5095053;28;20170;-77
2024/01/15 00:22:39;;;;;;;39.70;21.63;;;1.30;99.90;;;;;;5094722;28;20188;-78
2024/01/15 00:25:05;;;;;;;43.50;22.57;;;1.30;99.90;;;;;;5093159;28;20178;-77
2024/01/15 00:27:30;;;;;;;41.17;21.23;;;1.40;99.90;;;;;;5093310;28;20309;-77
2024/01/15 00:29:56;;;;;;;38.63;21.40;;;1.40;99.90;;;;;;5093433;28;20174;-76
2024/01/15 00:32:21;;;;;;;38.13;21.23;;;1.40;99.90;;;;;;5094540;28;20255;-78
2024/01/15 00:34:47;;;;;;;45.03;23.37;;;1.40;99.90;;;;;;5095626;28;20291;-77
2024/01/15 00:37:12;;;;;;;40.30;21.53;;;1.40;99.90;;;;;;5092567;28;20187;-77
2024/01/15 00:39:38;;;;;;;39.50;20.80;;;1.40;99.90;;;;;;5092333;28;20177;-78
2024/01/15 00:42:04;;;;;;;39.73;21.77;;;1.40;99.90;;;;;;5093656;28;20190;-77
2024/01/15 00:44:29;;;;;;;37.53;20.50;;;1.50;99.90;;;;;;5092235;28;20181;-77
2024/01/15 00:46:55;;;;;;;35.47;20.93;;;1.50;99.90;;;;;;5093271;28;20244;-77
2024/01/15 00:49:20;;;;;;;37.07;21.33;;;1.40;99.90;;;;;;5093644;28;20166;-77
2024/01/15 00:51:47;;;;;;;33.73;19.27;;;1.50;99.90;;;;;;5093088;28;20186;-77
2024/01/15 00:54:12;;;;;;;35.13;21.47;;;1.50;99.90;;;;;;5091831;28;20257;-77
2024/01/15 00:56:38;;;;;;;38.73;21.50;;;1.50;99.90;;;;;;5092009;28;20269;-77
2024/01/15 00:59:03;;;;;;;35.90;21.27;;;1.50;99.90;;;;;;5091692;28;20188;-77
2024/01/15 01:01:29;;;;;;;33.70;19.60;;;1.60;99.90;;;;;;5093073;28;20194;-76
2024/01/15 01:03:55;;;;;;;38.73;21.10;;;1.60;99.90;;;;;;5091768;28;20182;-77
2024/01/15 01:06:20;;;;;;;34.40;19.43;;;1.60;99.90;;;;;;5091754;28;20197;-77
2024/01/15 01:08:46;;;;;;;34.27;20.83;;;1.50;99.90;;;;;;5092095;28;20194;-77
2024/01/15 01:11:15;;;;;;;37.60;20.77;;;1.50;99.90;;;;;;5091408;28;20186;-77
2024/01/15 01:13:41;;;;;;;38.57;22.27;;;1.60;99.90;;;;;;5093104;28;20158;-77
2024/01/15 01:16:06;;;;;;;34.57;20.80;;;1.60;99.90;;;;;;5091788;28;20178;-77
2024/01/15 01:18:32;;;;;;;35.33;20.50;;;1.50;99.90;;;;;;5093160;28;20705;-77
2024/01/15 01:20:57;;;;;;;31.43;19.00;;;1.50;99.90;;;;;;5092819;28;20646;-76
2024/01/15 01:23:23;;;;;;;34.77;21.43;;;1.60;99.90;;;;;;5090972;28;20533;-76
2024/01/15 01:25:48;;;;;;;34.60;21.07;;;1.60;99.90;;;;;;5091066;28;20174;-77
2024/01/15 01:28:14;;;;;;;36.70;19.93;;;1.60;99.90;;;;;;5091207;28;20558;-77
2024/01/15 01:30:40;;;;;;;35.40;20.63;;;1.60;99.90;;;;;;5092892;28;20190;-77
2024/01/15 01:33:05;;;;;;;33.73;20.13;;;1.60;99.90;;;;;;5091097;28;20210;-76
2024/01/15 01:35:31;;;;;;;33.77;20.57;;;1.60;99.90;;;;;;5091363;28;20174;-77
2024/01/15 01:37:56;;;;;;;39.10;21.40;;;1.60;99.90;;;;;;5091041;28;20239;-77
2024/01/15 01:40:22;;;;;;;37.53;21.63;;;1.60;99.90;;;;;;5091297;28;20170;-76
2024/01/15 01:42:48;;;;;;;36.70;20.33;;;1.60;99.90;;;;;;5092370;28;20171;-77
2024/01/15 01:45:15;;;;;;;36.73;20.20;;;1.60;99.90;;;;;;5092712;28;20174;-77
2024/01/15 01:47:41;;;;;;;34.67;19.87;;;1.60;99.90;;;;;;5091373;28;20684;-77
2024/01/15 01:50:07;;;;;;;32.90;19.27;;;1.60;99.90;;;;;;5092579;28;20167;-77
2024/01/15 01:52:33;;;;;;;34.00;18.77;;;1.60;99.90;;;;;;5091377;28;20198;-77
2024/01/15 01:55:01;;;;;;;34.50;18.93;;;1.60;99.90;;;;;;5091543;28;20212;-78
2024/01/15 01:57:28;;;;;;;36.60;19.80;;;1.60;99.90;;;;;;5091454;28;20582;-77
2024/01/15 01:59:54;;;;;;;33.97;18.93;;;1.60;99.90;;;;;;5092848;28;20174;-76
2024/01/15 02:02:21;;;;;;;33.47;18.93;;;1.60;99.90;;;;;;5091401;28;20303;-77
2024/01/15 02:04:48;;;;;;;34.10;18.43;;;1.60;99.90;;;;;;5094369;28;20291;-77
2024/01/15 02:07:13;;;;;;;32.27;17.30;;;1.60;99.90;;;;;;5095267;28;20201;-77
2024/01/15 02:09:39;;;;;;;30.67;17.40;;;1.60;99.90;;;;;;5095443;28;20174;-76
2024/01/15 02:12:05;;;;;;;34.63;18.27;;;1.60;99.90;;;;;;5096597;28;20190;-77
2024/01/15 02:14:31;;;;;;;29.20;18.33;;;1.60;99.90;;;;;;5096922;28;20645;-77
2024/01/15 02:16:56;;;;;;;28.30;16.23;;;1.80;99.90;;;;;;5095061;28;20201;-75
2024/01/15 02:19:22;;;;;;;31.60;17.90;;;1.60;99.90;;;;;;5095130;28;20175;-77
2024/01/15 02:21:47;;;;;;;33.23;16.57;;;1.50;99.90;;;;;;5096089;28;20163;-77
2024/01/15 02:24:13;;;;;;;31.77;17.07;;;1.70;99.90;;;;;;5095202;28;20196;-78
2024/01/15 02:26:39;;;;;;;31.00;16.70;;;1.70;99.90;;;;;;5094914;28;20170;-78
2024/01/15 02:29:06;;;;;;;27.70;16.43;;;1.70;99.90;;;;;;5095073;28;20182;-77
2024/01/15 02:31:32;;;;;;;29.43;15.77;;;1.70;99.90;;;;;;5094969;28;20202;-77
2024/01/15 02:33:57;;;;;;;28.67;15.30;;;1.70;99.90;;;;;;5096444;28;20205;-77
2024/01/15 02:36:23;;;;;;;29.40;15.70;;;1.80;99.90;;;;;;5095396;28;20209;-77
2024/01/15 02:38:48;;;;;;;26.80;15.53;;;1.70;99.90;;;;;;5095064;28;20225;-77
2024/01/15 02:41:14;;;;;;;23.63;13.93;;;1.80;99.90;;;;;;5095335;28;20182;-77
2024/01/15 02:43:41;;;;;;;26.10;14.90;;;1.80;99.90;;;;;;5101178;28;20605;-77
2024/01/15 02:46:06;;;;;;;23.60;13.60;;;1.80;99.90;;;;;;5100524;28;20178;-77
2024/01/15 02:48:33;;;;;;;24.60;13.13;;;1.80;99.90;;;;;;5095677;28;20221;-78
2024/01/15 02:50:58;;;;;;;21.67;13.00;;;1.70;99.90;;;;;;5094423;28;20174;-77
2024/01/15 02:53:24;;;;;;;23.00;12.83;;;1.80;99.90;;;;;;5094017;28;20236;-77
2024/01/15 02:55:49;;;;;;;24.67;11.60;;;1.70;99.90;;;;;;5095596;28;20205;-77
2024/01/15 02:58:15;;;;;;;21.13;12.13;;;1.80;99.90;;;;;;5094224;28;20209;-77
2024/01/15 03:00:40;;;;;;;29.30;13.43;;;1.80;99.90;;;;;;5093793;28;20319;-76
2024/01/15 03:03:06;;;;;;;19.77;11.57;;;1.70;99.90;;;;;;5094942;28;20635;-76
2024/01/15 03:05:31;;;;;;;18.53;11.33;;;1.70;99.90;;;;;;5093645;28;20181;-77
2024/01/15 03:07:57;;;;;;;20.67;11.83;;;1.80;99.90;;;;;;5094920;28;20209;-77
2024/01/15 03:10:22;;;;;;;20.43;11.57;;;1.80;99.90;;;;;;5095089;28;20549;-76
2024/01/15 03:12:48;;;;;;;22.13;11.73;;;1.70;99.90;;;;;;5093425;28;20681;-76
2024/01/15 03:15:13;;;;;;;21.20;12.30;;;1.80;99.90;;;;;;5093464;28;20642;-77
2024/01/15 03:17:40;;;;;;;19.40;11.73;;;1.80;99.90;;;;;;5093472;28;20198;-77
2024/01/15 03:20:07;;;;;;;24.43;12.67;;;1.80;99.90;;;;;;5095340;28;20163;-76
2024/01/15 03:22:32;;;;;;;18.40;12.47;;;1.80;99.90;;;;;;5095284;28;20551;-77
2024/01/15 03:24:58;;;;;;;21.37;12.90;;;1.80;99.90;;;;;;5093610;28;20174;-77
2024/01/15 03:27:23;;;;;;;24.17;13.77;;;1.80;99.90;;;;;;5094925;28;20198;-77
2024/01/15 03:29:49;;;;;;;23.00;13.10;;;1.80;99.90;;;;;;5093807;28;20180;-77
2024/01/15 03:32:16;;;;;;;21.97;14.20;;;1.70;99.90;;;;;;5094850;28;20225;-77
2024/01/15 03:34:41;;;;;;;24.23;14.30;;;1.70;99.90;;;;;;5094463;28;20170;-77
2024/01/15 03:37:07;;;;;;;22.50;14.70;;;1.70;99.90;;;;;;5095209;28;20554;-77
2024/01/15 03:39:32;;;;;;;20.43;13.57;;;1.80;99.90;;;;;;5095291;28;20185;-77
2024/01/15 03:41:58;;;;;;;24.20;14.80;;;1.80;99.90;;;;;;5098847;28;20170;-77
2024/01/15 03:44:23;;;;;;;23.90;14.90;;;1.80;99.90;;;;;;5103518;28;20181;-77
2024/01/15 03:46:49;;;;;;;24.67;14.50;;;1.80;99.90;;;;;;5100656;28;20181;-78
2024/01/15 03:49:14;;;;;;;23.20;14.70;;;1.80;99.90;;;;;;5095524;28;20178;-77
2024/01/15 03:51:40;;;;;;;24.13;13.87;;;1.80;99.90;;;;;;5093722;28;20334;-77
2024/01/15 03:54:06;;;;;;;21.97;13.60;;;1.80;99.90;;;;;;5094053;28;20206;-77
2024/01/15 03:56:31;;;;;;;24.47;14.30;;;1.80;99.90;;;;;;5093702;28;20170;-78
2024/01/15 03:58:57;;;;;;;23.57;15.17;;;1.80;99.90;;;;;;5093615;28;20190;-77
2024/01/15 04:01:22;;;;;;;21.20;13.70;;;1.80;99.90;;;;;;5094920;28;20202;-77
2024/01/15 04:03:48;;;;;;;26.57;14.57;;;1.80;99.90;;;;;;5093414;28;20254;-78
2024/01/15 04:06:14;;;;;;;21.73;13.70;;;1.80;99.90;;;;;;5094924;28;20173;-78
2024/01/15 04:08:39;;;;;;;22.93;12.83;;;1.80;99.90;;;;;;5093586;28;20707;-77
2024/01/15 04:11:05;;;;;;;22.57;12.77;;;1.80;99.90;;;;;;5093375;28;20185;-77
2024/01/15 04:13:32;;;;;;;21.53;13.63;;;1.80;99.90;;;;;;5094428;28;20650;-76
2024/01/15 04:15:58;;;;;;;24.57;13.30;;;1.70;99.90;;;;;;5092317;28;20197;-77
2024/01/15 04:18:23;;;;;;;19.27;13.33;;;1.80;99.90;;;;;;5093354;28;20182;-75
2024/01/15 04:20:49;;;;;;;20.53;12.50;;;1.80;99.90;;;;;;5092185;28;20178;-77
2024/01/15 04:23:14;;;;;;;21.90;13.23;;;1.80;99.90;;;;;;5093811;28;20202;-77
2024/01/15 04:25:42;;;;;;;24.10;14.60;;;1.80;99.90;;;;;;5093358;28;20650;-77
2024/01/15 04:28:08;;;;;;;21.30;14.17;;;1.80;99.90;;;;;;5092805;28;20278;-77
2024/01/15 04:30:34;;;;;;;18.43;12.00;;;1.80;99.90;;;;;;5094772;28;20198;-77
2024/01/15 04:32:59;;;;;;;15.53;12.27;;;1.80;99.90;;;;;;5094086;28;20245;-77
2024/01/15 04:35:25;;;;;;;18.23;12.47;;;1.80;99.90;;;;;;5094127;28;20190;-76
2024/01/15 04:37:50;;;;;;;22.80;12.93;;;1.70;99.90;;;;;;5094186;28;20228;-77
2024/01/15 04:40:16;;;;;;;27.67;13.27;;;1.80;99.90;;;;;;5092792;28;20178;-77
2024/01/15 04:42:41;;;;;;;23.23;13.77;;;1.70;99.90;;;;;;5092495;28;20210;-77
2024/01/15 04:45:07;;;;;;;21.67;13.83;;;1.70;99.90;;;;;;5092628;28;20185;-77
2024/01/15 04:47:33;;;;;;;20.73;13.60;;;1.70;99.90;;;;;;5094125;28;20213;-77
2024/01/15 04:49:59;;;;;;;18.13;12.10;;;1.70;99.90;;;;;;5092795;28;20230;-77
2024/01/15 04:52:24;;;;;;;19.43;12.77;;;1.70;99.90;;;;;;5094360;28;20221;-76
2024/01/15 04:54:50;;;;;;;18.10;12.30;;;1.70;99.90;;;;;;5096359;28;20664;-77
2024/01/15 04:57:15;;;;;;;21.07;12.13;;;1.70;99.90;;;;;;5100155;28;20194;-77
2024/01/15 04:59:41;;;;;;;20.50;11.33;;;1.70;99.90;;;;;;5096398;28;20199;-77
2024/01/15 05:02:07;;;;;;;17.37;10.80;;;1.70;99.90;;;;;;5093516;28;20174;-77
2024/01/15 05:04:32;;;;;;;21.10;10.70;;;1.80;99.90;;;;;;5093969;28;20174;-77
2024/01/15 05:06:58;;;;;;;17.53;11.03;;;1.80;99.90;;;;;;5091817;28;20217;-77
2024/01/15 05:09:23;;;;;;;17.70;10.57;;;1.70;99.90;;;;;;5091989;28;20227;-77
2024/01/15 05:11:49;;;;;;;20.27;10.27;;;1.80;99.90;;;;;;5093268;28;20198;-77
2024/01/15 05:14:14;;;;;;;17.77;9.13;;;1.70;99.90;;;;;;5093448;28;20190;-77
2024/01/15 05:16:46;;;;;;;18.53;10.23;;;1.80;99.90;;;;;;5093243;28;20178;-77
2024/01/15 05:19:12;;;;;;;19.40;10.70;;;1.80;99.90;;;;;;5091712;28;20172;-77
2024/01/15 05:21:37;;;;;;;21.77;11.00;;;1.80;99.90;;;;;;5091685;28;20557;-77
2024/01/15 05:24:03;;;;;;;20.00;9.87;;;1.80;99.90;;;;;;5092890;28;20170;-76
2024/01/15 05:26:29;;;;;;;17.83;10.30;;;1.80;99.90;;;;;;5092784;28;20664;-77
2024/01/15 05:28:54;;;;;;;16.20;10.23;;;1.80;99.90;;;;;;5091380;28;20212;-77
2024/01/15 05:31:20;;;;;;;15.13;10.30;;;1.80;99.90;;;;;;5091684;28;20265;-77
2024/01/15 05:33:45;;;;;;;16.40;10.80;;;1.80;99.90;;;;;;5091696;28;20535;-78
2024/01/15 05:36:11;;;;;;;16.33;10.00;;;1.80;99.90;;;;;;5088702;28;20276;-78
2024/01/15 05:38:36;;;;;;;19.10;10.80;;;1.90;99.90;;;;;;5094287;28;20277;-77
2024/01/15 05:41:02;;;;;;;17.63;10.60;;;1.90;99.90;;;;;;5093829;28;20212;-77
2024/01/15 05:43:27;;;;;;;19.93;11.20;;;1.80;99.90;;;;;;5096823;28;20209;-77
2024/01/15 05:45:53;;;;;;;16.13;10.87;;;1.90;99.90;;;;;;5097353;28;20253;-77
2024/01/15 05:48:18;;;;;;;18.27;10.60;;;1.80;99.90;;;;;;5095597;28;20544;-77
2024/01/15 05:50:44;;;;;;;15.93;10.87;;;1.80;99.90;;;;;;5095258;28;20197;-77
2024/01/15 05:53:09;;;;;;;14.23;10.40;;;1.80;99.90;;;;;;5095767;28;20546;-77
2024/01/15 05:55:37;;;;;;;19.77;9.67;;;1.80;99.90;;;;;;5095080;28;20207;-75
2024/01/15 05:58:03;;;;;;;18.10;9.43;;;1.90;99.90;;;;;;5094998;28;20678;-77
2024/01/15 06:00:29;;;;;;;17.40;8.70;;;1.90;99.90;;;;;;5095045;28;20261;-77
2024/01/15 06:02:54;;;;;;;14.87;9.23;;;1.90;99.90;;;;;;5096309;28;20202;-77
2024/01/15 06:05:20;;;;;;;14.53;8.60;;;1.90;99.90;;;;;;5096313;28;20269;-77
2024/01/15 06:07:45;;;;;;;15.60;8.17;;;1.90;99.90;;;;;;5095030;28;20194;-77
2024/01/15 06:10:11;;;;;;;14.47;7.10;;;1.90;99.90;;;;;;5096951;28;20174;-78
2024/01/15 06:12:36;;;;;;;14.90;7.47;;;1.90;99.90;;;;;;5097008;28;20198;-78
2024/01/15 06:15:02;;;;;;;16.47;7.73;;;1.90;99.90;;;;;;5097522;28;20173;-77
2024/01/15 06:17:28;;;;;;;11.00;7.20;;;2.00;99.90;;;;;;5098114;28;20595;-78
2024/01/15 06:19:53;;;;;;;16.63;7.87;;;2.00;99.90;;;;;;5096656;28;20182;-77
2024/01/15 06:22:19;;;;;;;17.33;7.87;;;2.00;99.90;;;;;;5096511;28;20193;-78
2024/01/15 06:24:44;;;;;;;12.20;7.30;;;2.00;99.90;;;;;;5098403;28;20186;-78
2024/01/15 06:27:10;;;;;;;14.37;7.43;;;2.00;99.90;;;;;;5098351;28;20194;-79
2024/01/15 06:29:38;;;;;;;13.43;7.57;;;2.00;99.90;;;;;;5097517;28;20307;-78
2024/01/15 06:32:04;;;;;;;13.93;7.40;;;2.00;99.90;;;;;;5097690;28;20281;-78
2024/01/15 06:34:29;;;;;;;10.87;6.50;;;2.00;99.90;;;;;;5097437;28;20171;-78
2024/01/15 06:36:55;;;;;;;11.90;6.53;;;2.00;99.90;;;;;;5096062;28;21527;-78
2024/01/15 06:39:20;;;;;;;12.47;6.30;;;2.00;99.90;;;;;;5097380;28;20224;-77
2024/01/15 06:41:46;;;;;;;11.27;6.37;;;2.00;99.90;;;;;;5097255;28;20178;-78
2024/01/15 06:44:12;;;;;;;13.13;6.73;;;2.00;99.90;;;;;;5095903;28;20178;-78
2024/01/15 06:46:45;;;;;;;7.90;5.37;;;2.00;99.90;;;;;;5096742;28;20189;-77
2024/01/15 06:49:11;;;;;;;9.17;5.13;;;2.00;99.90;;;;;;5095258;28;20193;-77
2024/01/15 06:51:37;;;;;;;8.00;5.67;;;2.00;99.90;;;;;;5095149;28;20182;-75
2024/01/15 06:54:02;;;;;;;8.70;4.70;;;1.90;99.90;;;;;;5093825;28;20174;-76
2024/01/15 06:56:28;;;;;;;6.37;4.30;;;1.90;99.90;;;;;;5095195;28;20251;-77
2024/01/15 06:58:53;;;;;;;8.37;4.63;;;1.90;99.90;;;;;;5094945;28;20234;-77
2024/01/15 07:01:19;;;;;;;8.57;4.77;;;1.90;99.90;;;;;;5095081;28;20173;-76
2024/01/15 07:03:44;;;;;;;5.20;3.77;;;1.90;99.90;;;;;;5093762;28;20273;-77
2024/01/15 07:06:11;;;;;;;10.33;4.43;;;1.90;99.90;;;;;;5094916;28;20545;-76
2024/01/15 07:08:37;;;;;;;9.03;3.77;;;1.80;99.90;;;;;;5094013;28;20202;-76
2024/01/15 07:11:06;;;;;;;5.93;4.03;;;1.80;99.90;;;;;;5096089;28;20182;-76
2024/01/15 07:13:31;;;;;;;9.47;3.83;;;1.80;99.90;;;;;;5095198;28;20256;-76
2024/01/15 07:15:57;;;;;;;5.73;4.00;;;1.80;99.90;;;;;;5094756;28;20174;-76
2024/01/15 07:18:23;;;;;;;8.87;3.47;;;1.80;99.90;;;;;;5093161;28;20190;-76
2024/01/15 07:20:49;;;;;;;6.77;4.60;;;1.80;99.90;;;;;;5094957;28;20174;-76
2024/01/15 07:23:14;;;;;;;8.70;5.63;;;1.70;99.90;;;;;;5093082;28;20174;-76
2024/01/15 07:25:40;;;;;;;9.37;5.60;;;1.70;99.90;;;;;;5093030;28;20185;-76
2024/01/15 07:28:05;;;;;;;7.13;6.00;;;1.70;99.90;;;;;;5094622;28;20209;-76
2024/01/15 07:30:31;;;;;;;8.93;6.47;;;1.70;99.90;;;;;;5093202;28;20221;-77
2024/01/15 07:32:56;;;;;;;9.73;7.40;;;1.70;99.90;;;;;;5094281;28;20278;-76
2024/01/15 07:35:22;;;;;;;14.90;8.80;;;1.80;99.90;;;;;;5093002;28;20752;-76
2024/01/15 07:37:47;;;;;;;14.70;9.67;;;1.80;99.90;;;;;;5094199;28;20194;-76
2024/01/15 07:40:13;;;;;;;14.37;9.33;;;1.80;99.90;;;;;;5094282;28;20631;-76
2024/01/15 07:42:39;;;;;;;12.90;10.23;;;1.80;99.90;;;;;;5094254;28;20174;-77
2024/01/15 07:45:05;;;;;;;17.53;11.17;;;1.80;99.90;;;;;;5092909;28;20179;-75
2024/01/15 07:47:30;;;;;;;17.87;11.63;;;1.80;99.90;;;;;;5094080;28;20206;-76
2024/01/15 07:49:56;;;;;;;18.77;11.40;;;1.80;99.90;;;;;;5093942;28;20174;-76
2024/01/15 07:52:21;;;;;;;14.30;10.60;;;1.90;99.90;;;;;;5093881;28;20536;-77
2024/01/15 07:54:47;;;;;;;15.30;10.13;;;1.90;99.90;;;;;;5092598;28;20296;-76
2024/01/15 07:57:13;;;;;;;13.77;10.37;;;1.90;99.90;;;;;;5092434;28;20198;-76
2024/01/15 07:59:40;;;;;;;17.90;11.13;;;1.90;99.90;;;;;;5092451;28;20182;-75
2024/01/15 08:02:05;;;;;;;11.67;9.57;;;1.90;99.90;;;;;;5093185;28;20283;-77
2024/01/15 08:04:31;;;;;;;13.80;10.47;;;1.80;99.90;;;;;;5093778;28;20174;-76
2024/01/15 08:06:57;;;;;;;14.40;9.73;;;1.80;99.90;;;;;;5093648;28;20522;-76
2024/01/15 08:09:22;;;;;;;13.43;9.80;;;1.80;99.90;;;;;;5093494;28;20673;-76
2024/01/15 08:11:49;;;;;;;14.47;9.60;;;1.80;99.90;;;;;;5093378;28;20190;-76
2024/01/15 08:14:15;;;;;;;12.57;9.67;;;1.80;99.90;;;;;;5092069;28;20307;-76
2024/01/15 08:16:40;;;;;;;17.10;9.63;;;1.70;99.90;;;;;;5093486;28;20194;-76
2024/01/15 08:19:06;;;;;;;14.13;9.63;;;1.70;99.90;;;;;;5093546;28;20175;-76
2024/01/15 08:21:32;;;;;;;11.60;9.10;;;1.70;99.90;;;;;;5093575;28;20237;-76
2024/01/15 08:24:02;;;;;;;12.37;8.70;;;1.60;99.90;;;;;;5092378;28;20171;-76
2024/01/15 08:26:28;;;;;;;12.60;8.73;;;1.60;99.90;;;;;;5093301;28;20604;-75
2024/01/15 08:28:54;;;;;;;12.07;8.00;;;1.60;99.90;;;;;;5093127;28;20267;-76
2024/01/15 08:31:19;;;;;;;10.43;7.93;;;1.50;99.90;;;;;;5091772;28;20646;-76
2024/01/15 08:33:45;;;;;;;11.97;7.90;;;1.60;99.90;;;;;;5092961;28;20245;-76
2024/01/15 08:36:10;;;;;;;9.30;7.37;;;1.50;99.90;;;;;;5091578;28;20631;-76
2024/01/15 08:38:36;;;;;;;10.43;8.20;;;1.50;99.90;;;;;;5092933;28;20712;-75
2024/01/15 08:41:01;;;;;;;14.27;7.97;;;1.50;99.90;;;;;;5092925;28;20189;-76
2024/01/15 08:43:27;;;;;;;8.63;6.43;;;1.40;99.90;;;;;;5093062;28;20248;-76
2024/01/15 08:45:53;;;;;;;7.00;6.30;;;1.40;99.90;;;;;;5092966;28;20199;-76
2024/01/15 08:48:19;;;;;;;7.53;6.37;;;1.40;99.90;;;;;;5092815;28;20198;-75
2024/01/15 08:50:45;;;;;;;11.10;6.83;;;1.40;99.90;;;;;;5091342;28;20178;-75
2024/01/15 08:53:11;;;;;;;9.97;7.67;;;1.40;99.90;;;;;;5091297;28;20580;-76
2024/01/15 08:55:37;;;;;;;7.53;6.03;;;1.40;99.90;;;;;;5091438;28;20170;-76
2024/01/15 08:58:03;;;;;;;10.23;7.10;;;1.40;99.90;;;;;;5091232;28;20187;-76
2024/01/15 09:00:28;;;;;;;7.03;6.33;;;1.50;99.90;;;;;;5091316;28;20174;-76
2024/01/15 09:02:54;;;;;;;9.07;7.10;;;1.40;99.90;;;;;;5092432;28;20257;-76
2024/01/15 09:05:19;;;;;;;8.97;6.60;;;1.50;99.90;;;;;;5092710;28;20638;-76
2024/01/15 09:07:46;;;;;;;8.53;7.10;;;1.40;99.90;;;;;;5091793;28;20202;-76
2024/01/15 09:10:11;;;;;;;13.37;8.10;;;1.40;99.90;;;;;;5092414;28;20178;-76
2024/01/15 09:12:37;;;;;;;7.40;5.90;;;1.30;99.90;;;;;;5092020;28;20202;-76
2024/01/15 09:15:04;;;;;;;7.03;6.03;;;1.30;99.90;;;;;;5092383;28;20172;-76
2024/01/15 09:17:29;;;;;;;7.87;6.10;;;1.30;99.90;;;;;;5092147;28;20251;-77
2024/01/15 09:19:55;;;;;;;6.93;4.73;;;1.20;99.90;;;;;;5092355;28;20170;-77
2024/01/15 09:22:21;;;;;;;7.57;5.07;;;1.20;99.90;;;;;;5091247;28;20231;-77
2024/01/15 09:24:46;;;;;;;5.47;4.90;;;1.20;99.90;;;;;;5092323;28;20171;-77
2024/01/15 09:27:12;;;;;;;5.10;4.57;;;1.20;99.90;;;;;;5092125;28;20301;-77
2024/01/15 09:29:39;;;;;;;5.90;4.87;;;1.10;99.90;;;;;;5092025;28;20174;-76
2024/01/15 09:32:06;;;;;;;8.43;6.30;;;1.10;99.90;;;;;;5090685;28;20232;-76
2024/01/15 09:34:34;;;;;;;7.17;5.70;;;1.20;99.90;;;;;;5091071;28;20265;-76
2024/01/15 09:36:59;;;;;;;8.37;5.47;;;1.20;99.90;;;;;;5090659;28;20654;-76
2024/01/15 09:39:26;;;;;;;7.27;5.27;;;1.30;99.90;;;;;;5090594;28;20280;-76
2024/01/15 09:41:52;;;;;;;5.87;5.27;;;1.30;99.90;;;;;;5090625;28;20182;-76
2024/01/15 09:44:19;;;;;;;6.77;4.73;;;1.30;99.90;;;;;;5090545;28;20533;-76
2024/01/15 09:46:46;;;;;;;5.63;4.47;;;1.30;99.90;;;;;;5090495;28;20236;-76
2024/01/15 09:49:12;;;;;;;7.83;5.33;;;1.30;99.90;;;;;;5091906;28;20575;-77
2024/01/15 09:51:38;;;;;;;7.33;6.10;;;1.30;99.90;;;;;;5091801;28;20181;-77
2024/01/15 09:54:04;;;;;;;7.20;5.97;;;1.30;99.90;;;;;;5091900;28;20178;-76
2024/01/15 09:56:31;;;;;;;7.93;6.63;;;1.40;99.90;;;;;;5090406;28;20174;-77
2024/01/15 09:58:57;;;;;;;10.50;6.80;;;1.40;99.90;;;;;;5091500;28;20546;-76
2024/01/15 10:01:23;;;;;;;8.57;6.67;;;1.40;99.90;;;;;;5091954;28;20170;-76
2024/01/15 10:03:50;;;;;;;8.70;6.90;;;1.40;99.90;;;;;;5091108;28;20189;-76
2024/01/15 10:06:19;;;;;;;16.37;11.73;;;1.50;99.90;;;;;;5091773;28;20186;-76
2024/01/15 10:08:50;;;;;;;8.00;6.60;;;1.50;99.90;;;;;;5090344;28;20194;-76
2024/01/15 10:11:19;;;;;;;10.27;6.10;;;1.50;99.90;;;;;;5091793;28;20695;-76
2024/01/15 10:13:44;;;;;;;8.87;6.90;;;1.50;99.90;;;;;;5092097;28;20202;-76
2024/01/15 10:16:11;;;;;;;7.50;5.90;;;1.50;99.90;;;;;;5090390;28;20175;-76
2024/01/15 10:18:36;;;;;;;7.50;6.23;;;1.50;99.90;;;;;;5091603;28;20201;-76
2024/01/15 10:21:08;;;;;;;5.97;5.37;;;1.50;99.90;;;;;;5091670;28;20174;-76
2024/01/15 10:23:34;;;;;;;5.97;4.80;;;1.50;99.90;;;;;;5090249;28;20236;-76
2024/01/15 10:26:00;;;;;;;5.40;4.90;;;1.50;99.90;;;;;;5093652;28;20174;-76
2024/01/15 10:28:26;;;;;;;7.10;5.90;;;1.60;99.90;;;;;;5095473;28;20225;-75
2024/01/15 10:31:00;;;;;;;6.03;4.77;;;1.60;99.90;;;;;;5095399;28;20181;-76
2024/01/15 10:33:26;;;;;;;7.07;5.00;;;1.60;99.90;;;;;;5095104;28;20215;-76
2024/01/15 10:35:59;;;;;;;5.27;4.50;;;1.60;99.90;;;;;;5095473;28;20170;-76
2024/01/15 10:38:25;;;;;;;6.90;5.33;;;1.60;99.90;;;;;;5093858;28;20281;-76
2024/01/15 10:40:52;;;;;;;5.77;4.80;;;1.50;99.90;;;;;;5095661;28;20660;-77
2024/01/15 10:43:17;;;;;;;5.53;4.50;;;1.60;99.90;;;;;;5095424;28;20194;-76
2024/01/15 10:45:46;;;;;;;6.60;5.03;;;1.60;99.90;;;;;;5095282;28;20542;-76
2024/01/15 10:48:13;;;;;;;5.07;4.57;;;1.60;99.90;;;;;;5095168;28;20190;-76
2024/01/15 10:50:39;;;;;;;6.70;5.03;;;1.60;99.90;;;;;;5093726;28;20594;-77
2024/01/15 10:53:05;;;;;;;5.43;4.93;;;1.60;99.90;;;;;;5094932;28;20188;-76
2024/01/15 10:55:33;;;;;;;5.80;4.80;;;1.70;99.90;;;;;;5093668;28;20166;-76
2024/01/15 10:57:59;;;;;;;7.60;5.23;;;1.70;99.90;;;;;;5093832;28;20197;-75
2024/01/15 11:00:25;;;;;;;8.17;5.13;;;1.70;99.90;;;;;;5094987;28;20181;-75
2024/01/15 11:02:55;;;;;;;6.20;5.17;;;1.70;99.90;;;;;;5094782;28;20604;-76
2024/01/15 11:05:22;;;;;;;6.03;4.97;;;1.80;99.90;;;;;;5095150;28;20162;-75
2024/01/15 11:07:49;;;;;;;6.50;4.87;;;1.80;99.90;;;;;;5094844;28;20677;-75
2024/01/15 11:10:49;;;;;;;6.37;5.27;;;1.90;99.90;;;;;;5094705;28;20183;-75
2024/01/15 11:13:20;;;;;;;6.70;4.70;;;1.90;99.90;;;;;;5061741;28;20210;-75
2024/01/15 11:15:59;;;;;;;7.77;4.67;;;1.90;99.90;;;;;;5094671;28;20158;-75
2024/01/15 11:18:28;;;;;;;7.50;5.30;;;1.90;99.90;;;;;;5093226;28;20201;-75
2024/01/15 11:21:18;;;;;;;8.03;4.63;;;2.00;99.90;;;;;;5094737;28;20241;-75
2024/01/15 11:23:46;;;;;;;5.43;4.50;;;2.00;99.90;;;;;;5094425;28;20162;-76
2024/01/15 11:26:30;;;;;;;8.27;4.43;;;1.90;99.90;;;;;;5093086;28;20179;-75
2024/01/15 11:28:56;;;;;;;5.13;4.13;;;1.90;99.90;;;;;;5094134;28;20186;-75
2024/01/15 11:31:48;;;;;;;7.27;4.37;;;2.80;99.90;;;;;;5092955;28;20170;-75
2024/01/15 11:34:13;;;;;;;7.43;3.93;;;2.00;99.90;;;;;;5070725;28;20194;-77
2024/01/15 11:36:48;;;;;;;7.13;3.87;;;2.10;99.90;;;;;;5092538;28;20235;-75
2024/01/15 11:39:42;;;;;;;5.40;3.77;;;2.20;99.90;;;;;;5094137;28;20177;-75
2024/01/15 11:42:09;;;;;;;6.90;3.40;;;2.20;99.90;;;;;;5092746;28;20166;-75
2024/01/15 11:44:34;;;;;;;7.60;3.10;;;2.20;99.90;;;;;;5093812;28;20178;-76
2024/01/15 11:47:05;;;;;;;10.53;3.37;;;2.10;99.90;;;;;;5093853;28;20239;-75
2024/01/15 11:50:02;;;;;;;6.53;2.77;;;2.10;99.90;;;;;;5093857;28;20166;-76
2024/01/15 11:52:38;;;;;;;9.83;2.77;;;2.10;99.90;;;;;;5093681;28;20201;-75
2024/01/15 11:55:13;;;;;;;6.17;2.33;;;2.10;99.90;;;;;;5092694;28;20155;-75
2024/01/15 11:57:45;;;;;;;6.80;2.50;;;2.10;99.90;;;;;;5092624;28;20197;-75
2024/01/15 12:00:12;;;;;;;4.60;2.57;;;2.20;99.90;;;;;;5092904;28;20174;-75
2024/01/15 12:02:39;;;;;;;6.43;2.57;;;2.20;99.90;;;;;;5093748;28;20171;-76
2024/01/15 12:05:05;;;;;;;2.83;1.90;;;2.20;99.90;;;;;;5092439;28;20174;-76
2024/01/15 12:07:31;;;;;;;8.10;3.00;;;2.20;99.90;;;;;;5093512;28;20236;-74
2024/01/15 12:09:56;;;;;;;1.87;1.77;;;2.20;99.90;;;;;;5092193;28;20175;-75
2024/01/15 12:12:37;;;;;;;3.70;2.50;;;2.20;99.90;;;;;;5093416;28;20239;-75
2024/01/15 12:15:03;;;;;;;7.70;2.70;;;2.30;99.90;;;;;;5093455;28;20146;-76
2024/01/15 12:17:29;;;;;;;6.20;2.53;;;2.30;99.90;;;;;;5093330;28;20193;-76
2024/01/15 12:19:56;;;;;;;5.30;2.33;;;2.30;99.90;;;;;;5093360;28;20170;-76
2024/01/15 12:22:21;;;;;;;4.73;2.40;;;2.30;99.90;;;;;;5093583;28;20216;-76
2024/01/15 12:24:47;;;;;;;4.87;2.30;;;2.30;99.90;;;;;;5091816;28;20577;-76
2024/01/15 12:27:12;;;;;;;10.87;2.30;;;2.30;99.90;;;;;;5091664;28;20193;-75
2024/01/15 12:29:38;;;;;;;6.53;3.00;;;2.30;99.90;;;;;;5091797;28;20181;-76
2024/01/15 12:32:05;;;;;;;6.33;2.77;;;2.40;99.90;;;;;;5092879;28;20209;-76
2024/01/15 12:34:31;;;;;;;4.97;2.63;;;2.40;99.90;;;;;;5092964;28;20186;-75
2024/01/15 12:36:57;;;;;;;4.93;3.00;;;2.50;99.90;;;;;;5092672;28;20642;-76
2024/01/15 12:39:24;;;;;;;5.83;2.70;;;2.50;99.90;;;;;;5091586;28;20170;-75
2024/01/15 12:41:50;;;;;;;6.37;2.80;;;2.50;99.90;;;;;;5091997;28;20173;-76